Time;durP1;ratioP1;P1;durP2;ratioP2;P2;SDS_P1;SDS_P2;PMS_P1;PMS_P2;Temp;Humidity;BMP_temperature;BMP_pressure;BME280_temperature;BME280_humidity;BME280_pressure;Samples;Min_cycle;Max_cycle;Signal;HPM_P1;HPM_P2
2023/04/17 00:00:17;;;;;;;;;2.00;2.00;;;;;9.67;98.61;102020.78;4980330;28;45463;-75
2023/04/17 00:02:43;;;;;;;;;3.00;3.00;;;;;9.64;98.35;102024.75;4985255;28;45350;-75
2023/04/17 00:05:09;;;;;;;;;6.00;4.67;;;;;9.58;99.15;102011.75;4960354;28;47633;-74
2023/04/17 00:07:37;;;;;;;;;3.67;3.67;;;;;9.61;99.21;102019.63;4963040;28;45879;-73
2023/04/17 00:10:07;;;;;;;;;4.00;4.00;;;;;9.59;98.88;102013.44;4973550;28;46620;-74
2023/04/17 00:12:32;;;;;;;;;4.00;4.00;;;;;9.56;99.66;102008.28;4972072;28;46501;-74
2023/04/17 00:14:58;;;;;;;;;4.00;4.00;;;;;9.54;99.89;102015.84;4973041;28;45842;-76
2023/04/17 00:17:23;;;;;;;;;3.00;3.00;;;;;9.49;100.00;102001.78;4982957;28;45694;-75
2023/04/17 00:19:49;;;;;;;;;3.00;3.00;;;;;9.49;100.00;102010.88;4985012;28;45414;-74
2023/04/17 00:22:14;;;;;;;;;4.00;4.00;;;;;9.49;100.00;102008.13;4980960;28;45820;-74
2023/04/17 00:24:40;;;;;;;;;5.67;4.33;;;;;9.50;100.00;102009.81;4973496;28;45746;-76
2023/04/17 00:27:05;;;;;;;;;5.00;5.00;;;;;9.43;100.00;102000.59;4976453;28;45370;-73
2023/04/17 00:29:31;;;;;;;;;5.00;4.33;;;;;9.43;100.00;102007.94;4978091;28;45922;-76
2023/04/17 00:31:57;;;;;;;;;3.00;3.00;;;;;9.41;100.00;102005.38;4957243;28;46736;-75
2023/04/17 00:34:22;;;;;;;;;3.00;3.00;;;;;9.33;100.00;101989.81;4978275;28;45417;-75
2023/04/17 00:36:47;;;;;;;;;4.67;3.67;;;;;9.30;100.00;101984.69;4976710;28;45473;-74
2023/04/17 00:39:13;;;;;;;;;3.00;3.00;;;;;9.37;100.00;101998.53;4976378;28;45716;-74
2023/04/17 00:41:38;;;;;;;;;6.00;4.00;;;;;9.31;100.00;102000.09;4970833;28;47049;-74
2023/04/17 00:44:03;;;;;;;;;5.00;5.00;;;;;9.28;100.00;101992.22;4987324;28;45735;-74
2023/04/17 00:46:30;;;;;;;;;5.00;5.00;;;;;9.29;100.00;102007.59;4984847;28;45510;-74
2023/04/17 00:48:55;;;;;;;;;6.00;5.00;;;;;9.26;100.00;102002.47;4973753;28;45384;-75
2023/04/17 00:51:21;;;;;;;;;4.00;3.33;;;;;9.23;100.00;101997.31;4974104;28;45559;-73
2023/04/17 00:53:47;;;;;;;;;4.00;4.00;;;;;9.20;100.00;101986.72;4974519;28;45493;-75
2023/04/17 00:56:12;;;;;;;;;3.00;3.00;;;;;8.98;100.00;101964.47;4974907;28;45658;-75
2023/04/17 00:58:39;;;;;;;;;6.00;5.00;;;;;9.12;100.00;101984.81;4981306;28;45481;-74
2023/04/17 01:01:05;;;;;;;;;5.00;4.00;;;;;9.09;100.00;101987.91;4974826;28;45386;-74
2023/04/17 01:03:31;;;;;;;;;6.33;5.33;;;;;9.07;100.00;101980.88;4979799;28;45575;-75
2023/04/17 01:05:57;;;;;;;;;6.00;4.00;;;;;9.05;100.00;101983.78;4977404;28;45569;-75
2023/04/17 01:08:23;;;;;;;;;4.67;4.67;;;;;9.09;100.00;101978.84;4979068;28;45641;-75
2023/04/17 01:10:49;;;;;;;;;3.33;3.33;;;;;9.06;100.00;101979.19;4976330;28;45875;-72
2023/04/17 01:13:14;;;;;;;;;6.67;4.00;;;;;8.96;100.00;101969.22;4975501;28;45397;-74
2023/04/17 01:15:40;;;;;;;;;6.67;6.00;;;;;9.00;100.00;101977.97;4977702;28;45784;-75
2023/04/17 01:18:05;;;;;;;;;6.00;6.00;;;;;8.95;100.00;101969.41;4982790;28;45683;-75
2023/04/17 01:20:31;;;;;;;;;3.00;3.00;;;;;8.89;100.00;101968.22;4973728;28;45498;-76
2023/04/17 01:22:57;;;;;;;;;6.00;5.00;;;;;8.88;100.00;101966.50;4976608;28;45930;-77
2023/04/17 01:25:23;;;;;;;;;8.00;5.00;;;;;8.81;100.00;101969.03;4974155;28;45634;-75
2023/04/17 01:27:49;;;;;;;;;6.00;3.67;;;;;8.79;100.00;101970.22;4977103;28;45752;-77
2023/04/17 01:30:15;;;;;;;;;5.00;5.00;;;;;8.61;100.00;101949.31;4981157;28;45706;-77
2023/04/17 01:32:40;;;;;;;;;6.00;6.00;;;;;8.71;100.00;101973.78;4979932;28;45859;-77
2023/04/17 01:35:06;;;;;;;;;3.33;2.67;;;;;8.72;100.00;101977.38;4976788;28;45621;-77
2023/04/17 01:37:32;;;;;;;;;5.67;5.33;;;;;8.61;100.00;101964.88;4980613;28;45610;-77
2023/04/17 01:39:58;;;;;;;;;5.00;5.00;;;;;8.68;100.00;101968.63;4980547;28;45765;-77
2023/04/17 01:42:24;;;;;;;;;5.00;5.00;;;;;8.64;100.00;101973.59;4962200;28;47185;-75
2023/04/17 01:44:49;;;;;;;;;6.67;5.00;;;;;8.54;100.00;101953.72;4972140;28;45508;-77
2023/04/17 01:47:15;;;;;;;;;4.00;4.00;;;;;8.63;100.00;101971.03;4977906;28;45511;-74
2023/04/17 01:49:40;;;;;;;;;6.33;5.00;;;;;8.61;100.00;101976.66;4974900;28;47281;-76
2023/04/17 01:52:06;;;;;;;;;8.00;6.00;;;;;8.59;100.00;101978.72;4988853;28;46286;-75
2023/04/17 01:54:31;;;;;;;;;4.00;2.67;;;;;8.53;100.00;101979.34;4976385;28;45378;-77
2023/04/17 01:56:56;;;;;;;;;7.33;6.33;;;;;8.46;100.00;101967.38;4987956;28;45374;-77
2023/04/17 01:59:22;;;;;;;;;8.33;5.67;;;;;8.46;100.00;101968.25;4961327;28;45855;-78
2023/04/17 02:01:51;;;;;;;;;7.00;5.67;;;;;8.44;100.00;101973.03;4974649;28;45464;-79
2023/04/17 02:04:16;;;;;;;;;6.00;6.00;;;;;8.45;100.00;101977.44;4987288;28;45386;-78
2023/04/17 02:06:42;;;;;;;;;8.33;5.00;;;;;8.41;100.00;101967.84;4983786;28;45610;-79
2023/04/17 02:09:07;;;;;;;;;8.33;8.33;;;;;8.40;100.00;101968.88;4981224;28;45770;-78
2023/04/17 02:11:33;;;;;;;;;7.00;7.00;;;;;8.40;100.00;101962.56;4969405;28;48131;-78
2023/04/17 02:13:58;;;;;;;;;7.00;6.00;;;;;8.39;100.00;101972.59;4963413;28;45532;-78
2023/04/17 02:16:23;;;;;;;;;5.67;5.67;;;;;8.21;100.00;101939.06;4989367;28;45479;-76
2023/04/17 02:18:50;;;;;;;;;1.00;1.00;;;;;8.35;100.00;101964.91;4978611;28;45497;-76
2023/04/17 02:21:15;;;;;;;;;5.00;5.00;;;;;8.23;100.00;101940.63;4990770;28;45377;-77
2023/04/17 02:23:41;;;;;;;;;5.67;5.00;;;;;8.33;100.00;101964.22;4991165;28;45423;-76
2023/04/17 02:26:06;;;;;;;;;5.00;5.00;;;;;8.31;100.00;101958.94;4978195;28;45448;-76
2023/04/17 02:28:31;;;;;;;;;7.67;6.67;;;;;8.27;100.00;101969.31;4975625;28;45667;-74
2023/04/17 02:30:57;;;;;;;;;8.00;7.00;;;;;8.27;100.00;101961.09;4981642;28;45726;-75
2023/04/17 02:33:25;;;;;;;;;9.00;7.33;;;;;8.12;100.00;101930.81;4982903;28;45597;-76
2023/04/17 02:35:51;;;;;;;;;7.00;6.00;;;;;8.28;100.00;101956.53;4977725;28;45821;-77
2023/04/17 02:38:20;;;;;;;;;6.33;5.33;;;;;8.08;100.00;101931.31;4986812;28;45836;-75
2023/04/17 02:40:46;;;;;;;;;6.00;6.00;;;;;8.26;100.00;101962.16;4975664;28;45519;-77
2023/04/17 02:43:12;;;;;;;;;7.00;7.00;;;;;8.05;100.00;101929.75;4973074;28;45754;-76
2023/04/17 02:45:38;;;;;;;;;5.00;5.00;;;;;8.16;100.00;101950.47;4945550;28;45730;-75
2023/04/17 02:48:03;;;;;;;;;7.33;6.00;;;;;8.11;100.00;101944.63;4982474;28;45787;-75
2023/04/17 02:50:29;;;;;;;;;8.67;8.67;;;;;8.16;100.00;101958.69;4967166;28;45873;-76
2023/04/17 02:52:54;;;;;;;;;11.00;7.33;;;;;8.14;100.00;101957.97;4978240;28;45856;-74
2023/04/17 02:55:20;;;;;;;;;5.00;4.67;;;;;8.09;100.00;101946.69;4976127;28;45896;-75
2023/04/17 02:57:45;;;;;;;;;11.67;6.67;;;;;8.15;100.00;101961.56;4983072;28;45753;-76
2023/04/17 03:00:14;;;;;;;;;10.67;8.00;;;;;8.10;100.00;101957.44;4963918;28;47051;-74
2023/04/17 03:02:40;;;;;;;;;6.67;5.33;;;;;8.10;100.00;101968.38;4974510;28;45590;-75
2023/04/17 03:05:06;;;;;;;;;8.00;7.33;;;;;8.07;100.00;101967.88;4987058;28;45479;-75
2023/04/17 03:07:31;;;;;;;;;8.00;7.00;;;;;8.05;100.00;101959.78;4981183;28;45986;-76
2023/04/17 03:09:57;;;;;;;;;10.33;8.33;;;;;8.01;100.00;101944.78;4971451;28;45896;-76
2023/04/17 03:12:23;;;;;;;;;21.00;16.00;;;;;8.05;100.00;101954.34;4972049;28;45413;-74
2023/04/17 03:14:49;;;;;;;;;11.33;7.00;;;;;7.88;100.00;101925.22;4970138;28;45967;-77
2023/04/17 03:17:15;;;;;;;;;17.00;14.33;;;;;8.05;100.00;101953.47;4985912;28;45626;-75
2023/04/17 03:19:41;;;;;;;;;10.33;8.00;;;;;8.02;100.00;101957.38;4970974;28;46492;-76
2023/04/17 03:22:06;;;;;;;;;9.33;8.00;;;;;7.99;100.00;101945.94;4972068;28;45845;-76
2023/04/17 03:24:32;;;;;;;;;9.33;8.33;;;;;7.88;100.00;101933.44;4985531;28;45770;-75
2023/04/17 03:26:58;;;;;;;;;10.00;8.67;;;;;7.91;100.00;101947.59;4971362;28;45609;-75
2023/04/17 03:29:24;;;;;;;;;9.33;8.67;;;;;7.95;100.00;101953.63;4973956;28;45447;-76
2023/04/17 03:31:50;;;;;;;;;9.33;7.00;;;;;7.91;100.00;101947.59;4971426;28;45333;-76
2023/04/17 03:34:17;;;;;;;;;9.00;8.00;;;;;7.95;100.00;101959.09;4981271;28;45815;-76
2023/04/17 03:36:42;;;;;;;;;12.00;8.00;;;;;7.94;100.00;101957.34;4988563;28;45817;-76
2023/04/17 03:39:08;;;;;;;;;6.33;6.00;;;;;7.88;100.00;101955.28;4978957;28;46710;-74
2023/04/17 03:41:33;;;;;;;;;13.67;10.33;;;;;7.86;100.00;101947.25;4971417;28;45881;-75
2023/04/17 03:43:58;;;;;;;;;8.33;7.00;;;;;7.83;100.00;101949.41;4990545;28;45797;-75
2023/04/17 03:46:24;;;;;;;;;12.67;12.00;;;;;7.87;100.00;101962.59;4960836;28;47114;-76
2023/04/17 03:48:49;;;;;;;;;10.67;9.33;;;;;7.92;100.00;101962.13;4972227;28;46169;-76
2023/04/17 03:51:15;;;;;;;;;13.00;11.67;;;;;7.97;100.00;101956.19;4971127;28;45664;-78
2023/04/17 03:53:40;;;;;;;;;16.00;12.67;;;;;8.05;100.00;101969.88;4974408;28;45941;-79
2023/04/17 03:56:06;;;;;;;;;14.33;12.00;;;;;8.06;100.00;101956.06;4974662;28;45864;-81
2023/04/17 03:58:31;;;;;;;;;17.00;15.33;;;;;8.04;100.00;101946.28;4958639;28;46187;-79
2023/04/17 04:00:57;;;;;;;;;17.00;11.00;;;;;8.17;100.00;101971.31;4976212;28;46496;-81
2023/04/17 04:03:23;;;;;;;;;19.67;15.33;;;;;8.15;100.00;101965.16;4975650;28;45575;-80
2023/04/17 04:05:49;;;;;;;;;17.00;14.33;;;;;8.17;100.00;101968.56;4954932;28;45963;-81
2023/04/17 04:08:14;;;;;;;;;14.00;11.00;;;;;8.10;100.00;101968.38;4987814;28;45535;-78
2023/04/17 04:10:43;;;;;;;;;16.33;14.00;;;;;8.11;100.00;101956.44;4979989;28;45528;-81
2023/04/17 04:13:09;;;;;;;;;19.67;17.00;;;;;8.07;100.00;101965.13;4978993;28;45796;-78
2023/04/17 04:15:34;;;;;;;;;19.67;16.00;;;;;7.89;100.00;101941.47;4975831;28;45361;-75
2023/04/17 04:18:00;;;;;;;;;17.33;17.33;;;;;8.05;100.00;101962.53;4978150;28;46212;-75
2023/04/17 04:20:25;;;;;;;;;16.33;14.00;;;;;8.15;100.00;101975.25;4976751;28;45372;-76
2023/04/17 04:22:51;;;;;;;;;18.67;16.33;;;;;8.05;100.00;101956.22;4980076;28;45517;-77
2023/04/17 04:25:16;;;;;;;;;28.33;19.00;;;;;8.17;100.00;101965.84;4982680;28;45920;-76
2023/04/17 04:27:48;;;;;;;;;19.67;17.00;;;;;8.20;100.00;101979.19;4985797;28;45586;-80
2023/04/17 04:30:15;;;;;;;;;25.33;21.33;;;;;8.23;100.00;101978.88;4997551;28;45475;-78
2023/04/17 04:32:46;;;;;;;;;19.00;17.67;;;;;8.27;100.00;101973.94;4985271;28;45879;-78
2023/04/17 04:35:13;;;;;;;;;23.33;22.33;;;;;8.31;100.00;101980.78;4980604;28;45454;-77
2023/04/17 04:37:41;;;;;;;;;26.00;20.67;;;;;8.35;100.00;101986.78;4971255;28;47295;-78
2023/04/17 04:40:10;;;;;;;;;20.67;17.67;;;;;8.41;100.00;101992.47;4981261;28;45751;-78
2023/04/17 04:42:36;;;;;;;;;22.33;20.67;;;;;8.43;100.00;101987.66;4990718;28;44771;-79
2023/04/17 04:45:03;;;;;;;;;25.67;18.67;;;;;8.43;100.00;101995.03;4996108;28;45142;-77
2023/04/17 04:47:31;;;;;;;;;25.67;21.00;;;;;8.41;100.00;101991.59;4982099;28;45907;-81
2023/04/17 04:49:57;;;;;;;;;25.33;23.00;;;;;8.43;100.00;101989.56;4975278;28;45723;-76
2023/04/17 04:52:22;;;;;;;;;25.67;23.33;;;;;8.37;100.00;101974.66;4980697;28;44981;-77
2023/04/17 04:54:48;;;;;;;;;30.67;25.00;;;;;8.51;100.00;101989.63;4991724;28;45511;-77
2023/04/17 04:57:13;;;;;;;;;26.33;19.33;;;;;8.44;100.00;101973.03;4992050;28;46118;-77
2023/04/17 04:59:39;;;;;;;;;28.67;26.00;;;;;8.50;100.00;101981.56;4980031;28;45858;-77
2023/04/17 05:02:04;;;;;;;;;31.00;26.67;;;;;8.60;100.00;102001.44;4983135;28;45516;-75
2023/04/17 05:04:29;;;;;;;;;29.00;22.00;;;;;8.64;100.00;101986.44;4987906;28;45433;-80
2023/04/17 05:06:56;;;;;;;;;27.33;19.33;;;;;8.68;100.00;101993.25;4981436;28;45466;-79
2023/04/17 05:09:21;;;;;;;;;30.33;26.00;;;;;8.53;100.00;101962.94;4983456;28;45423;-79
2023/04/17 05:11:47;;;;;;;;;32.00;25.67;;;;;8.65;100.00;101975.31;4981862;28;45576;-77
2023/04/17 05:14:12;;;;;;;;;30.00;22.67;;;;;8.70;100.00;101987.63;4965284;28;46636;-78
2023/04/17 05:16:40;;;;;;;;;34.00;28.00;;;;;8.73;100.00;101984.59;4985679;28;45411;-78
2023/04/17 05:19:05;;;;;;;;;27.67;15.00;;;;;8.84;100.00;101997.94;4986301;28;45651;-75
2023/04/17 05:21:31;;;;;;;;;31.67;28.67;;;;;8.90;100.00;101996.41;4989911;28;45893;-77
2023/04/17 05:23:56;;;;;;;;;30.00;25.33;;;;;8.88;100.00;101991.13;4987150;28;46966;-77
2023/04/17 05:26:22;;;;;;;;;33.67;27.00;;;;;8.87;100.00;101992.13;4972264;28;48002;-73
2023/04/17 05:28:47;;;;;;;;;26.67;22.67;;;;;8.96;100.00;102010.28;4982501;28;45556;-76
2023/04/17 05:31:13;;;;;;;;;23.33;22.00;;;;;8.96;100.00;102006.69;4978497;28;45813;-76
2023/04/17 05:33:38;;;;;;;;;33.33;25.67;;;;;8.95;100.00;102005.84;4991358;28;46316;-76
2023/04/17 05:36:04;;;;;;;;;24.67;23.00;;;;;8.93;100.00;102013.34;4993847;28;46015;-76
2023/04/17 05:38:30;;;;;;;;;39.33;25.00;;;;;8.90;100.00;102004.63;4981660;28;45806;-77
2023/04/17 05:40:55;;;;;;;;;28.67;23.67;;;;;8.89;100.00;102001.03;4969449;28;45465;-76
2023/04/17 05:43:21;;;;;;;;;31.33;26.67;;;;;8.90;100.00;102008.19;4984860;28;45659;-76
2023/04/17 05:45:47;;;;;;;;;31.00;26.33;;;;;8.90;100.00;102002.72;4982483;28;47418;-77
2023/04/17 05:48:12;;;;;;;;;38.33;26.33;;;;;8.94;100.00;102006.00;4984597;28;45432;-78
2023/04/17 05:50:38;;;;;;;;;31.33;27.00;;;;;8.97;100.00;102013.88;4987608;28;45438;-78
2023/04/17 05:53:03;;;;;;;;;22.67;20.67;;;;;8.97;100.00;102012.00;4992261;28;45856;-77
2023/04/17 05:55:29;;;;;;;;;29.33;27.33;;;;;9.05;100.00;102016.63;4978316;28;45779;-78
2023/04/17 05:57:54;;;;;;;;;34.67;27.33;;;;;9.11;100.00;102010.47;4990737;28;45785;-79
2023/04/17 06:00:21;;;;;;;;;30.33;23.00;;;;;9.21;100.00;102013.06;4995082;28;45939;-78
2023/04/17 06:02:46;;;;;;;;;25.33;21.67;;;;;9.27;100.00;102004.19;4988541;28;45628;-77
2023/04/17 06:05:12;;;;;;;;;29.67;27.33;;;;;9.33;100.00;102008.13;4984936;28;46355;-76
2023/04/17 06:07:37;;;;;;;;;29.67;27.67;;;;;9.45;100.00;102003.19;4962919;28;46015;-74
2023/04/17 06:10:07;;;;;;;;;31.00;27.33;;;;;9.46;100.00;102003.00;4989047;28;45734;-75
2023/04/17 06:12:33;;;;;;;;;31.67;28.33;;;;;9.59;100.00;102007.94;4993479;28;45863;-79
2023/04/17 06:14:58;;;;;;;;;37.00;29.33;;;;;9.66;100.00;102003.50;4988128;28;46417;-74
2023/04/17 06:17:24;;;;;;;;;30.00;30.00;;;;;9.75;100.00;102006.25;4983406;28;45757;-74
2023/04/17 06:19:49;;;;;;;;;31.67;27.33;;;;;9.71;100.00;102012.09;4989751;28;46094;-77
2023/04/17 06:22:15;;;;;;;;;31.67;22.00;;;;;9.81;100.00;102013.78;4973000;28;46191;-76
2023/04/17 06:24:40;;;;;;;;;29.67;26.67;;;;;9.84;100.00;102022.50;4990007;28;45697;-74
2023/04/17 06:27:05;;;;;;;;;33.67;29.67;;;;;9.88;100.00;102023.03;4990218;28;45229;-74
2023/04/17 06:29:31;;;;;;;;;28.00;24.67;;;;;9.91;100.00;102014.47;4986937;28;45484;-75
2023/04/17 06:31:56;;;;;;;;;30.67;28.33;;;;;9.93;100.00;102017.03;4988604;28;45542;-76
2023/04/17 06:34:22;;;;;;;;;27.00;20.33;;;;;9.96;100.00;102024.91;4990207;28;45652;-76
2023/04/17 06:36:47;;;;;;;;;32.67;24.67;;;;;10.04;100.00;102017.53;4996197;28;45900;-76
2023/04/17 06:39:13;;;;;;;;;29.67;26.67;;;;;10.04;100.00;102022.13;4978791;28;45397;-75
2023/04/17 06:41:38;;;;;;;;;30.33;26.00;;;;;10.06;100.00;102026.41;4976450;28;45603;-77
2023/04/17 06:44:04;;;;;;;;;37.67;29.33;;;;;10.07;100.00;102028.13;4985420;28;45542;-76
2023/04/17 06:46:30;;;;;;;;;26.00;21.00;;;;;10.04;100.00;102027.63;4973778;28;45442;-77
2023/04/17 06:48:58;;;;;;;;;27.67;26.00;;;;;10.05;100.00;102029.34;4960303;28;45559;-80
2023/04/17 06:51:26;;;;;;;;;29.33;25.00;;;;;10.13;100.00;102040.25;4982588;28;45528;-76
2023/04/17 06:53:51;;;;;;;;;33.33;28.00;;;;;10.17;100.00;102029.81;4977435;28;45714;-77
2023/04/17 06:56:19;;;;;;;;;31.33;28.00;;;;;10.22;100.00;102035.63;4981632;28;45763;-77
2023/04/17 06:58:44;;;;;;;;;28.67;25.33;;;;;10.29;100.00;102047.63;4976942;28;45405;-76
2023/04/17 07:01:11;;;;;;;;;33.33;26.00;;;;;10.26;100.00;102028.78;4981014;28;45436;-77
2023/04/17 07:03:38;;;;;;;;;32.33;28.00;;;;;10.35;100.00;102033.22;4977649;28;45781;-76
2023/04/17 07:06:03;;;;;;;;;41.33;31.67;;;;;10.47;100.00;102046.59;4985150;28;45756;-78
2023/04/17 07:08:28;;;;;;;;;34.00;30.33;;;;;10.42;100.00;102039.72;4988145;28;45384;-79
2023/04/17 07:10:54;;;;;;;;;31.67;27.67;;;;;10.48;100.00;102053.75;4986697;28;46050;-77
2023/04/17 07:13:20;;;;;;;;;34.67;28.33;;;;;10.53;100.00;102043.13;4977540;28;46035;-77
2023/04/17 07:15:52;;;;;;;;;33.67;28.33;;;;;10.52;100.00;102055.97;4989011;28;45900;-80
2023/04/17 07:18:17;;;;;;;;;36.67;32.00;;;;;10.35;100.00;102029.66;4990473;28;45792;-77
2023/04/17 07:20:42;;;;;;;;;32.00;28.67;;;;;10.60;100.00;102055.09;4987992;28;45804;-77
2023/04/17 07:23:08;;;;;;;;;34.33;26.00;;;;;10.57;100.00;102047.25;4976751;28;45425;-78
2023/04/17 07:25:33;;;;;;;;;38.67;30.00;;;;;10.56;100.00;102051.84;4976226;28;45417;-78
2023/04/17 07:27:59;;;;;;;;;31.33;28.33;;;;;10.60;100.00;102055.09;4981137;28;45360;-77
2023/04/17 07:30:24;;;;;;;;;38.33;31.00;;;;;10.64;100.00;102061.09;4977746;28;45736;-78
2023/04/17 07:32:51;;;;;;;;;38.33;32.33;;;;;10.68;100.00;102068.78;4984529;28;45480;-77
2023/04/17 07:35:17;;;;;;;;;38.00;31.00;;;;;10.64;100.00;102059.19;4992385;28;45599;-75
2023/04/17 07:37:42;;;;;;;;;36.33;30.67;;;;;10.68;100.00;102066.03;4987807;28;45365;-80
2023/04/17 07:40:09;;;;;;;;;38.33;32.00;;;;;10.67;100.00;102075.28;4968767;28;46072;-74
2023/04/17 07:42:35;;;;;;;;;38.33;30.67;;;;;10.66;100.00;102061.75;4979700;28;45465;-76
2023/04/17 07:45:00;;;;;;;;;43.67;32.33;;;;;10.66;100.00;102067.25;4975465;28;45452;-78
2023/04/17 07:47:25;;;;;;;;;39.00;31.33;;;;;10.75;100.00;102067.03;4978968;28;45286;-78
2023/04/17 07:49:51;;;;;;;;;36.33;30.67;;;;;10.81;100.00;102068.22;4980808;28;45317;-76
2023/04/17 07:52:16;;;;;;;;;48.33;36.00;;;;;10.82;100.00;102072.66;4985114;28;46938;-79
2023/04/17 07:54:42;;;;;;;;;46.33;33.67;;;;;10.85;100.00;102071.47;4993262;28;45791;-81
2023/04/17 07:57:08;;;;;;;;;34.67;31.00;;;;;10.84;100.00;102069.75;4988735;28;45398;-78
2023/04/17 07:59:35;;;;;;;;;31.67;30.00;;;;;10.95;100.00;102078.44;4962917;28;45852;-77
2023/04/17 08:02:01;;;;;;;;;38.00;30.00;;;;;10.91;100.00;102068.88;4981141;28;46457;-77
2023/04/17 08:04:26;;;;;;;;;47.33;35.00;;;;;10.91;100.00;102068.00;4982297;28;45546;-77
2023/04/17 08:06:51;;;;;;;;;41.67;33.67;;;;;11.01;100.00;102065.91;4989166;28;45910;-75
2023/04/17 08:09:17;;;;;;;;;37.33;30.00;;;;;10.99;100.00;102053.38;4989062;28;45897;-75
2023/04/17 08:11:44;;;;;;;;;40.67;31.00;;;;;11.17;100.00;102064.97;4997100;28;45721;-76
2023/04/17 08:14:10;;;;;;;;;37.00;31.67;;;;;11.27;100.00;102068.34;4994047;28;45327;-76
2023/04/17 08:16:36;;;;;;;;;35.00;31.00;;;;;11.33;100.00;102060.41;4963476;28;45886;-75
2023/04/17 08:19:01;;;;;;;;;45.00;33.00;;;;;11.39;100.00;102066.03;4992190;28;45566;-75
2023/04/17 08:21:27;;;;;;;;;37.33;33.67;;;;;11.54;100.00;102068.84;4981587;28;45392;-74
2023/04/17 08:23:52;;;;;;;;;47.67;34.00;;;;;11.58;100.00;102052.84;4978309;28;45763;-74
2023/04/17 08:26:19;;;;;;;;;39.33;32.33;;;;;11.59;100.00;102041.66;4977473;28;46235;-73
2023/04/17 08:28:45;;;;;;;;;40.67;29.00;;;;;11.96;100.00;102066.63;4981568;28;45868;-74
2023/04/17 08:31:12;;;;;;;;;43.67;35.00;;;;;12.14;100.00;102069.91;4985192;28;45923;-74
2023/04/17 08:33:38;;;;;;;;;53.50;43.50;;;;;12.24;100.00;102066.03;4985247;28;45623;-77
2023/04/17 08:36:04;;;;;;;;;47.67;35.67;;;;;12.23;100.00;102056.06;4976084;28;45406;-75
2023/04/17 08:38:30;;;;;;;;;46.00;35.00;;;;;12.40;100.00;102068.63;4981817;28;45471;-73
2023/04/17 08:41:01;;;;;;;;;39.00;32.67;;;;;12.49;100.00;102069.41;4984151;28;45518;-75
2023/04/17 08:43:28;;;;;;;;;42.67;35.67;;;;;12.49;100.00;102064.72;4983366;28;45893;-75
2023/04/17 08:45:54;;;;;;;;;47.00;36.00;;;;;12.40;100.00;102063.13;4988871;28;45469;-73
2023/04/17 08:48:23;;;;;;;;;45.33;35.00;;;;;12.42;100.00;102072.03;4967705;28;45395;-74
2023/04/17 08:50:52;;;;;;;;;50.00;38.00;;;;;12.44;100.00;102069.97;4981432;28;45751;-75
2023/04/17 08:53:18;;;;;;;;;43.67;35.00;;;;;12.35;100.00;102060.09;4980105;28;45620;-74
2023/04/17 08:55:44;;;;;;;;;42.00;36.00;;;;;12.32;100.00;102064.06;4981409;28;45463;-76
2023/04/17 08:58:11;;;;;;;;;45.33;35.67;;;;;12.41;100.00;102069.47;4974592;28;45502;-76
2023/04/17 09:00:39;;;;;;;;;45.00;35.00;;;;;12.42;100.00;102068.44;4962173;28;46177;-77
2023/04/17 09:03:07;;;;;;;;;51.25;35.00;;;;;12.40;100.00;102067.78;4993621;28;45680;-78
2023/04/17 09:05:37;;;;;;;;;43.00;31.67;;;;;12.35;100.00;102060.94;4957837;28;45388;-78
2023/04/17 09:08:22;;;;;;;;;46.67;37.33;;;;;12.49;100.00;102073.00;4979182;28;45397;-75
2023/04/17 09:10:54;;;;;;;;;45.67;37.00;;;;;12.18;100.00;102052.00;4969309;28;45799;-76
2023/04/17 09:13:24;;;;;;;;;53.67;39.00;;;;;12.34;100.00;102075.72;4976143;28;45598;-73
2023/04/17 09:16:18;;;;;;;;;38.67;32.67;;;;;12.36;100.00;102079.16;4955920;28;45513;-75
2023/04/17 09:18:46;;;;;;;;;38.33;33.67;;;;;12.36;100.00;102076.41;4968396;28;45766;-76
2023/04/17 09:21:17;;;;;;;;;47.33;38.33;;;;;12.26;100.00;102063.94;4969728;28;45877;-74
2023/04/17 09:23:53;;;;;;;;;50.00;36.67;;;;;12.36;100.00;102075.53;4967007;28;45143;-75
2023/04/17 09:26:26;;;;;;;;;45.33;35.33;;;;;12.50;100.00;102071.06;4964274;28;45477;-76
2023/04/17 09:29:02;;;;;;;;;53.00;38.00;;;;;12.69;100.00;102070.53;4982220;28;45337;-76
2023/04/17 09:31:29;;;;;;;;;52.00;41.00;;;;;12.73;100.00;102073.75;4969926;28;46168;-74
2023/04/17 09:34:01;;;;;;;;;50.00;39.67;;;;;12.64;100.00;102075.75;4988370;28;45738;-75
2023/04/17 09:36:29;;;;;;;;;48.00;36.33;;;;;12.66;100.00;102079.16;4986107;28;45865;-75
2023/04/17 09:38:55;;;;;;;;;48.00;36.67;;;;;12.56;100.00;102074.97;4984852;28;45447;-78
2023/04/17 09:41:32;;;;;;;;;46.67;36.67;;;;;12.37;100.00;102058.00;4997643;28;45429;-76
2023/04/17 09:44:00;;;;;;;;;50.00;38.33;;;;;12.59;100.00;102082.84;4980063;28;45740;-75
2023/04/17 09:46:46;;;;;;;;;38.67;32.67;;;;;12.45;100.00;102057.91;4979845;28;45990;-76
2023/04/17 09:49:28;;;;;;;;;48.00;39.33;;;;;12.57;100.00;102077.53;4970850;28;45581;-75
2023/04/17 09:51:55;;;;;;;;;45.67;36.33;;;;;12.55;100.00;102076.88;4958376;28;47040;-74
2023/04/17 09:54:22;;;;;;;;;49.67;40.67;;;;;12.44;100.00;102069.97;4975628;28;45524;-75
2023/04/17 09:56:54;;;;;;;;;46.75;35.50;;;;;12.39;100.00;102077.06;4980741;28;45812;-75
2023/04/17 09:59:22;;;;;;;;;49.00;38.33;;;;;12.33;100.00;102079.50;4978252;28;45217;-76
2023/04/17 10:01:52;;;;;;;;;49.33;36.00;;;;;12.33;100.00;102070.41;4960734;28;46184;-77
2023/04/17 10:04:18;;;;;;;;;46.00;36.00;;;;;12.35;100.00;102069.19;4982338;28;45534;-74
2023/04/17 10:06:44;;;;;;;;;47.67;38.33;;;;;12.31;100.00;102075.25;4965758;28;45120;-74
2023/04/17 10:09:10;;;;;;;;;50.75;38.50;;;;;12.17;100.00;102061.31;4966394;28;45965;-76
2023/04/17 10:11:41;;;;;;;;;46.00;35.33;;;;;12.34;100.00;102078.47;4962738;28;47931;-74
2023/04/17 10:14:16;;;;;;;;;47.67;34.33;;;;;12.17;100.00;102064.06;4977430;28;45912;-77
2023/04/17 10:16:42;;;;;;;;;43.67;35.33;;;;;12.26;100.00;102080.44;4969273;28;46025;-77
2023/04/17 10:19:33;;;;;;;;;46.00;37.67;;;;;12.15;100.00;102065.25;4976188;28;45957;-77
2023/04/17 10:22:16;;;;;;;;;50.67;38.33;;;;;12.23;100.00;102070.69;4953812;28;46359;-77
2023/04/17 10:24:50;;;;;;;;;45.33;34.33;;;;;12.29;100.00;102069.06;4954500;28;45777;-76
2023/04/17 10:27:25;;;;;;;;;48.33;33.67;;;;;12.29;100.00;102067.19;4960077;28;45913;-77
2023/04/17 10:29:57;;;;;;;;;39.00;30.33;;;;;12.17;100.00;102077.81;4983740;28;45974;-75
2023/04/17 10:32:31;;;;;;;;;37.67;30.00;;;;;12.14;100.00;102067.16;4973561;28;46277;-76
2023/04/17 10:35:24;;;;;;;;;43.00;35.00;;;;;12.23;100.00;102067.06;4964513;28;45603;-76
2023/04/17 10:37:49;;;;;;;;;46.00;32.00;;;;;12.19;100.00;102061.94;4982663;28;45831;-75
2023/04/17 10:40:30;;;;;;;;;46.67;36.00;;;;;12.21;100.00;102052.66;4983786;28;45779;-77
2023/04/17 10:43:19;;;;;;;;;47.33;35.67;;;;;12.36;100.00;102056.28;4970471;28;48119;-75
2023/04/17 10:46:02;;;;;;;;;45.33;33.33;;;;;12.46;100.00;102062.38;4991035;28;45713;-76
2023/04/17 10:48:37;;;;;;;;;37.00;32.00;;;;;12.55;100.00;102065.88;4983688;28;45772;-76
2023/04/17 10:51:25;;;;;;;;;43.00;35.00;;;;;12.61;100.00;102058.78;4992155;28;45881;-75
2023/04/17 10:54:09;;;;;;;;;45.00;35.00;;;;;12.62;100.00;102054.94;4967078;28;46284;-74
2023/04/17 10:56:58;;;;;;;;;53.33;39.00;;;;;12.63;100.00;102062.19;4987250;28;45831;-83
2023/04/17 10:59:28;;;;;;;;;51.67;38.67;;;;;12.59;100.00;102066.34;4969709;28;46461;-73
2023/04/17 11:01:56;;;;;;;;;45.00;35.67;;;;;12.48;100.00;102057.50;4988484;28;46684;-83
2023/04/17 11:04:26;;;;;;;;;46.33;33.00;;;;;12.47;100.00;102057.69;4964465;28;46678;-74
2023/04/17 11:06:52;;;;;;;;;43.00;35.67;;;;;12.41;100.00;102040.06;4982999;28;45468;-74
2023/04/17 11:09:23;;;;;;;;;44.67;31.67;;;;;12.47;100.00;102053.06;4989714;28;45895;-75
2023/04/17 11:11:49;;;;;;;;;43.67;33.67;;;;;12.60;100.00;102040.53;4961796;28;45928;-76